createdAt,value
2017-09-14T00:00:21.897Z,0
2017-09-14T00:01:21.966Z,0
2017-09-14T00:02:21.945Z,0
2017-09-14T00:03:21.968Z,0
2017-09-14T00:04:22.000Z,0
2017-09-14T00:05:22.013Z,0
2017-09-14T00:06:22.038Z,0
2017-09-14T00:07:22.066Z,0
2017-09-14T00:08:22.084Z,0
2017-09-14T00:09:22.110Z,0
2017-09-14T00:10:22.142Z,0
2017-09-14T00:11:22.467Z,0
2017-09-14T00:12:22.486Z,0
2017-09-14T00:13:22.518Z,0
2017-09-14T00:14:22.536Z,0
2017-09-14T00:15:22.248Z,0
2017-09-14T00:16:22.276Z,0
2017-09-14T00:17:22.349Z,0
2017-09-14T00:18:22.321Z,0
2017-09-14T00:19:22.349Z,0
2017-09-14T00:20:22.363Z,0
2017-09-14T00:21:22.390Z,0
2017-09-14T00:22:22.739Z,0
2017-09-14T00:23:22.451Z,0
2017-09-14T00:24:22.461Z,0
2017-09-14T00:25:22.481Z,0
2017-09-14T00:26:22.511Z,0
2017-09-14T00:27:22.528Z,0
2017-09-14T00:28:22.886Z,0
2017-09-14T00:29:27.235Z,0
2017-09-14T00:30:22.622Z,0
2017-09-14T00:31:22.632Z,0
2017-09-14T00:32:22.966Z,0
2017-09-14T00:33:22.986Z,0
2017-09-14T00:34:22.696Z,0
2017-09-14T00:35:22.777Z,0
2017-09-14T00:36:22.742Z,0
2017-09-14T00:37:23.085Z,0
2017-09-14T00:38:22.794Z,0
2017-09-14T00:39:22.816Z,0
2017-09-14T00:40:23.152Z,0
2017-09-14T00:41:23.191Z,0
2017-09-14T00:42:22.878Z,0
2017-09-14T00:43:23.537Z,0
2017-09-14T00:44:22.933Z,0
2017-09-14T00:45:22.956Z,0
2017-09-14T00:46:23.289Z,0
2017-09-14T00:47:23.004Z,0
2017-09-14T00:48:23.050Z,0
2017-09-14T00:49:23.055Z,0
2017-09-14T00:50:23.119Z,0
2017-09-14T00:51:23.091Z,0
2017-09-14T00:52:23.129Z,0
2017-09-14T00:53:23.139Z,0
2017-09-14T00:54:23.476Z,0
2017-09-14T00:55:23.219Z,0
2017-09-14T00:56:23.206Z,0
2017-09-14T00:57:23.234Z,0
2017-09-14T00:58:23.258Z,0
2017-09-14T00:59:23.281Z,0
2017-09-14T01:00:23.315Z,0
2017-09-14T01:01:23.334Z,0
2017-09-14T01:02:23.346Z,0
2017-09-14T01:03:23.684Z,0
2017-09-14T01:04:23.402Z,0
2017-09-14T01:05:23.435Z,0
2017-09-14T01:06:23.761Z,0
2017-09-14T01:07:23.464Z,0
2017-09-14T01:08:23.492Z,0
2017-09-14T01:09:23.586Z,0
2017-09-14T01:10:23.538Z,0
2017-09-14T01:11:23.880Z,0
2017-09-14T01:12:23.587Z,0
2017-09-14T01:13:23.620Z,0
2017-09-14T01:14:23.946Z,0
2017-09-14T01:15:23.657Z,0
2017-09-14T01:16:23.995Z,0
2017-09-14T01:17:23.698Z,0
2017-09-14T01:18:24.037Z,0
2017-09-14T01:19:23.770Z,0
2017-09-14T01:20:24.090Z,0
2017-09-14T01:21:23.787Z,0
2017-09-14T01:22:24.124Z,0
2017-09-14T01:23:23.835Z,0
2017-09-14T01:24:23.865Z,0
2017-09-14T01:25:23.899Z,0
2017-09-14T01:26:23.960Z,0
2017-09-14T01:27:23.943Z,0
2017-09-14T01:28:23.960Z,0
2017-09-14T01:29:23.988Z,0
2017-09-14T01:30:24.364Z,0
2017-09-14T01:31:24.044Z,0
2017-09-14T01:32:24.074Z,0
2017-09-14T01:33:24.071Z,0
2017-09-14T01:34:24.102Z,0
2017-09-14T01:35:24.119Z,0
2017-09-14T01:36:24.152Z,0
2017-09-14T01:37:24.173Z,0
2017-09-14T01:38:24.317Z,0
2017-09-14T01:39:24.217Z,0
2017-09-14T01:40:24.550Z,0
2017-09-14T01:41:24.261Z,0
2017-09-14T01:42:24.591Z,0
2017-09-14T01:43:24.314Z,0
2017-09-14T01:44:24.325Z,0
2017-09-14T01:45:24.360Z,0
2017-09-14T01:46:24.376Z,0
2017-09-14T01:47:24.398Z,0
2017-09-14T01:48:24.423Z,0
2017-09-14T01:49:24.449Z,0
2017-09-14T01:50:24.468Z,0
2017-09-14T01:51:24.798Z,0
2017-09-14T01:52:25.143Z,0
2017-09-14T01:53:24.533Z,0
2017-09-14T01:54:24.551Z,0
2017-09-14T01:55:24.599Z,0
2017-09-14T01:56:24.928Z,0
2017-09-14T01:57:24.946Z,0
2017-09-14T01:58:24.645Z,0
2017-09-14T01:59:24.670Z,0
2017-09-14T02:00:24.699Z,0
2017-09-14T02:01:24.781Z,0
2017-09-14T02:02:24.757Z,0
2017-09-14T02:03:24.780Z,0
2017-09-14T02:04:24.793Z,0
2017-09-14T02:05:25.132Z,0
2017-09-14T02:06:24.840Z,0
2017-09-14T02:07:24.865Z,0
2017-09-14T02:08:24.882Z,0
2017-09-14T02:09:24.902Z,0
2017-09-14T02:10:25.240Z,0
2017-09-14T02:11:24.948Z,0
2017-09-14T02:12:25.293Z,0
2017-09-14T02:13:25.005Z,0
2017-09-14T02:14:25.024Z,0
2017-09-14T02:15:25.045Z,0
2017-09-14T02:16:25.121Z,0
2017-09-14T02:17:25.096Z,0
2017-09-14T02:18:25.117Z,0
2017-09-14T02:19:25.136Z,0
2017-09-14T02:20:25.166Z,0
2017-09-14T02:21:25.174Z,0
2017-09-14T02:22:25.203Z,0
2017-09-14T02:23:25.531Z,0
2017-09-14T02:24:25.558Z,0
2017-09-14T02:25:25.272Z,0
2017-09-14T02:26:25.612Z,0
2017-09-14T02:27:25.338Z,0
2017-09-14T02:28:25.345Z,0
2017-09-14T02:29:25.670Z,0
2017-09-14T02:30:25.388Z,0
2017-09-14T02:31:25.411Z,0
2017-09-14T02:32:25.421Z,0
2017-09-14T02:33:25.769Z,0
2017-09-14T02:34:25.477Z,0
2017-09-14T02:35:25.811Z,0
2017-09-14T02:36:25.512Z,0
2017-09-14T02:37:25.540Z,0
2017-09-14T02:38:25.561Z,0
2017-09-14T02:39:25.588Z,0
2017-09-14T02:40:25.612Z,0
2017-09-14T02:41:25.949Z,0
2017-09-14T02:42:25.963Z,0
2017-09-14T02:43:25.672Z,0
2017-09-14T02:44:25.721Z,0
2017-09-14T02:45:25.716Z,0
2017-09-14T02:46:25.739Z,0
2017-09-14T02:47:25.776Z,0
2017-09-14T02:48:25.799Z,0
2017-09-14T02:49:26.129Z,0
2017-09-14T02:50:25.842Z,0
2017-09-14T02:51:25.910Z,0
2017-09-14T02:52:25.887Z,0
2017-09-14T02:53:25.898Z,0
2017-09-14T02:54:25.924Z,0
2017-09-14T02:55:25.955Z,0
2017-09-14T02:56:25.980Z,0
2017-09-14T02:57:25.986Z,0
2017-09-14T02:58:26.030Z,0
2017-09-14T02:59:26.043Z,0
2017-09-14T03:00:26.059Z,0
2017-09-14T03:01:26.705Z,0
2017-09-14T03:02:26.109Z,0
2017-09-14T03:03:26.119Z,0
2017-09-14T03:04:26.461Z,0
2017-09-14T03:05:26.169Z,0
2017-09-14T03:06:26.241Z,0
2017-09-14T03:07:26.530Z,0
2017-09-14T03:08:26.241Z,0
2017-09-14T03:09:26.261Z,0
2017-09-14T03:10:26.283Z,0
2017-09-14T03:11:26.320Z,0
2017-09-14T03:12:26.357Z,0
2017-09-14T03:13:26.352Z,0
2017-09-14T03:14:26.393Z,0
2017-09-14T03:15:26.389Z,0
2017-09-14T03:16:26.424Z,0
2017-09-14T03:17:26.451Z,0
2017-09-14T03:18:26.464Z,0
2017-09-14T03:19:26.494Z,0
2017-09-14T03:20:26.831Z,0
2017-09-14T03:21:26.545Z,0
2017-09-14T03:22:26.871Z,0
2017-09-14T03:23:26.587Z,0
2017-09-14T03:24:26.601Z,0
2017-09-14T03:25:26.623Z,0
2017-09-14T03:26:26.642Z,0
2017-09-14T03:27:26.682Z,0
2017-09-14T03:28:27.009Z,0
2017-09-14T03:29:27.035Z,0
2017-09-14T03:30:26.746Z,0
2017-09-14T03:31:26.764Z,0
2017-09-14T03:32:26.778Z,0
2017-09-14T03:33:26.800Z,0
2017-09-14T03:34:26.828Z,0
2017-09-14T03:35:26.848Z,0
2017-09-14T03:36:26.871Z,0
2017-09-14T03:37:26.899Z,0
2017-09-14T03:38:26.912Z,0
2017-09-14T03:39:27.002Z,0
2017-09-14T03:40:26.961Z,0
2017-09-14T03:41:26.990Z,0
2017-09-14T03:42:27.014Z,0
2017-09-14T03:43:27.027Z,0
2017-09-14T03:44:27.380Z,0
2017-09-14T03:45:27.075Z,0
2017-09-14T03:46:27.095Z,0
2017-09-14T03:47:27.115Z,0
2017-09-14T03:48:27.142Z,0
2017-09-14T03:49:27.170Z,0
2017-09-14T03:50:27.204Z,0
2017-09-14T03:51:27.217Z,0
2017-09-14T03:52:27.233Z,0
2017-09-14T03:53:27.255Z,0
2017-09-14T03:54:27.327Z,0
2017-09-14T03:55:27.302Z,0
2017-09-14T03:56:27.314Z,0
2017-09-14T03:57:27.345Z,0
2017-09-14T03:58:27.370Z,0
2017-09-14T03:59:27.385Z,0
2017-09-14T04:00:27.405Z,0
2017-09-14T04:01:27.455Z,0
2017-09-14T04:02:27.452Z,0
2017-09-14T04:03:27.477Z,0
2017-09-14T04:04:27.504Z,0
2017-09-14T04:05:27.844Z,0
2017-09-14T04:06:27.906Z,0
2017-09-14T04:07:27.574Z,0
2017-09-14T04:08:27.586Z,0
2017-09-14T04:09:27.918Z,0
2017-09-14T04:10:27.635Z,0
2017-09-14T04:11:27.708Z,0
2017-09-14T04:12:28.303Z,0
2017-09-14T04:13:27.740Z,0
2017-09-14T04:14:27.752Z,0
2017-09-14T04:15:27.758Z,0
2017-09-14T04:16:27.841Z,0
2017-09-14T04:17:27.790Z,0
2017-09-14T04:18:27.808Z,0
2017-09-14T04:19:28.141Z,0
2017-09-14T04:20:27.864Z,0
2017-09-14T04:21:27.978Z,0
2017-09-14T04:22:27.919Z,0
2017-09-14T04:23:28.250Z,0
2017-09-14T04:24:27.956Z,0
2017-09-14T04:25:27.967Z,0
2017-09-14T04:26:28.000Z,0
2017-09-14T04:27:28.016Z,0
2017-09-14T04:28:28.397Z,0
2017-09-14T04:29:28.367Z,0
2017-09-14T04:30:28.121Z,0
2017-09-14T04:31:28.123Z,0
2017-09-14T04:32:28.120Z,0
2017-09-14T04:33:28.143Z,0
2017-09-14T04:34:28.167Z,0
2017-09-14T04:35:28.184Z,0
2017-09-14T04:36:28.840Z,0
2017-09-14T04:37:28.248Z,0
2017-09-14T04:38:28.249Z,0
2017-09-14T04:39:28.347Z,0
2017-09-14T04:40:28.298Z,0
2017-09-14T04:41:28.317Z,0
2017-09-14T04:42:28.350Z,0
2017-09-14T04:43:28.382Z,0
2017-09-14T04:44:28.731Z,0
2017-09-14T04:45:28.412Z,5
2017-09-14T04:46:28.551Z,5
2017-09-14T04:47:28.459Z,5
2017-09-14T04:48:28.819Z,5
2017-09-14T04:49:28.495Z,5
2017-09-14T04:50:28.516Z,5
2017-09-14T04:51:28.858Z,5
2017-09-14T04:52:28.571Z,10
2017-09-14T04:53:28.901Z,10
2017-09-14T04:54:28.632Z,10
2017-09-14T04:55:28.684Z,10
2017-09-14T04:56:28.653Z,10
2017-09-14T04:57:28.672Z,15
2017-09-14T04:58:28.700Z,15
2017-09-14T04:59:28.737Z,15
2017-09-14T05:00:28.808Z,15
2017-09-14T05:01:28.775Z,20
2017-09-14T05:02:29.125Z,20
2017-09-14T05:03:28.816Z,20
2017-09-14T05:04:29.180Z,20
2017-09-14T05:05:28.863Z,25
2017-09-14T05:06:28.873Z,25
2017-09-14T05:07:28.903Z,25
2017-09-14T05:08:28.922Z,25
2017-09-14T05:09:28.949Z,30
2017-09-14T05:10:28.964Z,30
2017-09-14T05:11:28.991Z,30
2017-09-14T05:12:29.333Z,30
2017-09-14T05:13:29.038Z,35
2017-09-14T05:14:29.068Z,35
2017-09-14T05:15:29.076Z,35
2017-09-14T05:16:29.106Z,40
2017-09-14T05:17:29.432Z,40
2017-09-14T05:18:30.145Z,40
2017-09-14T05:19:29.169Z,40
2017-09-14T05:20:29.213Z,45
2017-09-14T05:21:29.218Z,45
2017-09-14T05:22:29.240Z,45
2017-09-14T05:23:29.261Z,45
2017-09-14T05:24:29.307Z,50
2017-09-14T05:25:29.304Z,50
2017-09-14T05:26:29.330Z,50
2017-09-14T05:27:29.343Z,50
2017-09-14T05:28:29.702Z,55
2017-09-14T05:29:29.395Z,55
2017-09-14T05:30:29.434Z,55
2017-09-14T05:31:29.443Z,60
2017-09-14T05:32:29.459Z,60
2017-09-14T05:33:29.534Z,60
2017-09-14T05:34:29.504Z,60
2017-09-14T05:35:29.835Z,65
2017-09-14T05:36:29.564Z,65
2017-09-14T05:37:29.895Z,65
2017-09-14T05:38:29.915Z,70
2017-09-14T05:39:29.947Z,70
2017-09-14T05:40:29.958Z,70
2017-09-14T05:41:29.994Z,75
2017-09-14T05:42:29.687Z,75
2017-09-14T05:43:29.720Z,75
2017-09-14T05:44:30.106Z,75
2017-09-14T05:45:29.756Z,80
2017-09-14T05:46:29.783Z,80
2017-09-14T05:47:29.804Z,80
2017-09-14T05:48:29.829Z,85
2017-09-14T05:49:30.537Z,85
2017-09-14T05:50:29.876Z,85
2017-09-14T05:51:29.900Z,90
2017-09-14T05:52:29.911Z,90
2017-09-14T05:53:29.940Z,90
2017-09-14T05:54:29.995Z,90
2017-09-14T05:55:29.976Z,95
2017-09-14T05:56:30.318Z,95
2017-09-14T05:57:30.029Z,95
2017-09-14T05:58:30.051Z,100
2017-09-14T05:59:30.069Z,100
2017-09-14T06:00:30.092Z,100
2017-09-14T06:01:30.115Z,105
2017-09-14T06:02:30.135Z,105
2017-09-14T06:03:30.463Z,105
2017-09-14T06:04:30.190Z,105
2017-09-14T06:05:30.212Z,110
2017-09-14T06:06:30.365Z,110
2017-09-14T06:07:30.254Z,110
2017-09-14T06:08:30.280Z,115
2017-09-14T06:09:30.308Z,115
2017-09-14T06:10:30.319Z,115
2017-09-14T06:11:30.354Z,115
2017-09-14T06:12:30.364Z,120
2017-09-14T06:13:30.387Z,120
2017-09-14T06:14:30.726Z,120
2017-09-14T06:15:30.438Z,120
2017-09-14T06:16:30.466Z,120
2017-09-14T06:17:30.486Z,120
2017-09-14T06:18:30.844Z,120
2017-09-14T06:19:30.845Z,125
2017-09-14T06:20:30.553Z,125
2017-09-14T06:21:30.622Z,125
2017-09-14T06:22:30.594Z,125
2017-09-14T06:23:30.623Z,130
2017-09-14T06:24:30.662Z,130
2017-09-14T06:25:30.677Z,130
2017-09-14T06:26:30.695Z,130
2017-09-14T06:27:30.709Z,135
2017-09-14T06:28:30.738Z,135
2017-09-14T06:29:30.777Z,135
2017-09-14T06:30:30.781Z,135
2017-09-14T06:31:31.122Z,140
2017-09-14T06:32:30.826Z,140
2017-09-14T06:33:30.853Z,140
2017-09-14T06:34:30.876Z,140
2017-09-14T06:35:30.912Z,145
2017-09-14T06:36:30.921Z,145
2017-09-14T06:37:30.997Z,145
2017-09-14T06:38:30.975Z,150
2017-09-14T06:39:31.001Z,150
2017-09-14T06:40:31.322Z,150
2017-09-14T06:41:31.046Z,150
2017-09-14T06:42:31.088Z,155
2017-09-14T06:43:31.081Z,155
2017-09-14T06:44:31.107Z,155
2017-09-14T06:45:31.133Z,160
2017-09-14T06:46:31.156Z,165
2017-09-14T06:47:31.490Z,165
2017-09-14T06:48:31.519Z,170
2017-09-14T06:49:31.250Z,180
2017-09-14T06:50:31.252Z,185
2017-09-14T06:51:31.267Z,190
2017-09-14T06:52:31.617Z,200
2017-09-14T06:53:31.318Z,200
2017-09-14T06:54:31.344Z,205
2017-09-14T06:55:31.385Z,185
2017-09-14T06:56:31.447Z,210
2017-09-14T06:57:31.435Z,205
2017-09-14T06:58:31.440Z,210
2017-09-14T06:59:31.470Z,205
2017-09-14T07:00:31.491Z,215
2017-09-14T07:01:31.514Z,225
2017-09-14T07:02:31.538Z,250
2017-09-14T07:03:31.562Z,255
2017-09-14T07:04:31.586Z,260
2017-09-14T07:05:31.920Z,260
2017-09-14T07:06:31.634Z,260
2017-09-14T07:07:31.856Z,265
2017-09-14T07:08:31.692Z,275
2017-09-14T07:09:31.703Z,275
2017-09-14T07:10:31.734Z,280
2017-09-14T07:11:31.758Z,245
2017-09-14T07:12:31.781Z,205
2017-09-14T07:13:32.124Z,290
2017-09-14T07:14:31.850Z,275
2017-09-14T07:15:31.856Z,240
2017-09-14T07:16:31.876Z,215
2017-09-14T07:17:31.911Z,205
2017-09-14T07:18:32.239Z,230
2017-09-14T07:19:31.953Z,285
2017-09-14T07:20:32.296Z,210
2017-09-14T07:21:32.020Z,225
2017-09-14T07:22:32.036Z,265
2017-09-14T07:23:32.051Z,215
2017-09-14T07:24:32.086Z,280
2017-09-14T07:25:32.108Z,285
2017-09-14T07:26:32.135Z,220
2017-09-14T07:27:32.154Z,270
2017-09-14T07:28:32.189Z,220
2017-09-14T07:29:32.202Z,220
2017-09-14T07:30:32.601Z,305
2017-09-14T07:31:32.254Z,285
2017-09-14T07:32:32.280Z,230
2017-09-14T07:33:32.311Z,290
2017-09-14T07:34:33.316Z,215
2017-09-14T07:35:32.867Z,225
2017-09-14T07:36:32.387Z,315
2017-09-14T07:37:32.413Z,240
2017-09-14T07:38:32.435Z,225
2017-09-14T07:39:32.455Z,220
2017-09-14T07:40:34.101Z,310
2017-09-14T07:41:33.656Z,250
2017-09-14T07:42:33.709Z,345
2017-09-14T07:43:34.398Z,270
2017-09-14T07:44:33.478Z,250
2017-09-14T07:45:34.362Z,230
2017-09-14T07:46:34.430Z,235
2017-09-14T07:47:34.332Z,265
2017-09-14T07:48:33.093Z,245
2017-09-14T07:49:33.112Z,250
2017-09-14T07:50:32.767Z,235
2017-09-14T07:51:32.766Z,330
2017-09-14T07:52:32.824Z,295
2017-09-14T07:53:32.816Z,330
2017-09-14T07:54:33.529Z,250
2017-09-14T07:55:32.869Z,340
2017-09-14T07:56:33.213Z,340
2017-09-14T07:57:34.382Z,275
2017-09-14T07:58:34.270Z,365
2017-09-14T07:59:32.979Z,260
2017-09-14T08:00:33.004Z,315
2017-09-14T08:01:33.337Z,265
2017-09-14T08:02:33.056Z,255
2017-09-14T08:03:33.391Z,260
2017-09-14T08:04:33.106Z,280
2017-09-14T08:05:34.161Z,250
2017-09-14T08:06:33.209Z,265
2017-09-14T08:07:33.181Z,250
2017-09-14T08:08:33.212Z,220
2017-09-14T08:09:33.244Z,205
2017-09-14T08:10:33.270Z,200
2017-09-14T08:11:33.289Z,195
2017-09-14T08:12:33.307Z,185
2017-09-14T08:13:33.337Z,175
2017-09-14T08:14:33.364Z,190
2017-09-14T08:15:33.701Z,190
2017-09-14T08:16:33.949Z,190
2017-09-14T08:17:34.202Z,200
2017-09-14T08:18:33.732Z,220
2017-09-14T08:19:34.180Z,300
2017-09-14T08:20:33.510Z,185
2017-09-14T08:21:33.592Z,165
2017-09-14T08:22:33.569Z,170
2017-09-14T08:23:33.587Z,190
2017-09-14T08:24:35.224Z,220
2017-09-14T08:25:33.668Z,250
2017-09-14T08:26:34.929Z,255
2017-09-14T08:27:34.965Z,250
2017-09-14T08:28:34.903Z,375
2017-09-14T08:29:34.061Z,250
2017-09-14T08:30:34.097Z,240
2017-09-14T08:31:33.847Z,235
2017-09-14T08:32:33.840Z,165
2017-09-14T08:33:34.152Z,150
2017-09-14T08:34:33.877Z,150
2017-09-14T08:35:34.211Z,150
2017-09-14T08:36:33.974Z,155
2017-09-14T08:37:33.941Z,170
2017-09-14T08:38:33.979Z,180
2017-09-14T08:39:34.344Z,170
2017-09-14T08:40:34.338Z,160
2017-09-14T08:41:34.051Z,145
2017-09-14T08:42:34.067Z,140
2017-09-14T08:43:34.094Z,155
2017-09-14T08:44:34.126Z,190
2017-09-14T08:45:34.143Z,225
2017-09-14T08:46:34.184Z,225
2017-09-14T08:47:34.190Z,205
2017-09-14T08:48:34.235Z,190
2017-09-14T08:49:34.238Z,205
2017-09-14T08:50:34.266Z,190
2017-09-14T08:51:34.598Z,170
2017-09-14T08:52:34.319Z,150
2017-09-14T08:53:34.336Z,135
2017-09-14T08:54:34.668Z,120
2017-09-14T08:55:34.380Z,120
2017-09-14T08:56:34.407Z,135
2017-09-14T08:57:34.429Z,155
2017-09-14T08:58:34.498Z,155
2017-09-14T08:59:34.680Z,145
2017-09-14T09:00:34.807Z,145
2017-09-14T09:01:34.522Z,145
2017-09-14T09:02:34.552Z,140
2017-09-14T09:03:34.580Z,140
2017-09-14T09:04:34.609Z,135
2017-09-14T09:05:34.626Z,125
2017-09-14T09:06:34.843Z,115
2017-09-14T09:07:34.699Z,115
2017-09-14T09:08:34.685Z,130
2017-09-14T09:09:34.712Z,155
2017-09-14T09:10:34.748Z,215
2017-09-14T09:11:35.391Z,265
2017-09-14T09:12:34.799Z,255
2017-09-14T09:13:34.855Z,205
2017-09-14T09:14:34.830Z,150
2017-09-14T09:15:34.862Z,140
2017-09-14T09:16:34.879Z,205
2017-09-14T09:17:35.214Z,275
2017-09-14T09:18:34.942Z,280
2017-09-14T09:19:34.943Z,215
2017-09-14T09:20:34.968Z,90
2017-09-14T09:21:34.992Z,70
2017-09-14T09:22:35.016Z,95
2017-09-14T09:23:35.035Z,110
2017-09-14T09:24:35.082Z,100
2017-09-14T09:25:35.104Z,80
2017-09-14T09:26:35.431Z,60
2017-09-14T09:27:35.156Z,60
2017-09-14T09:28:35.208Z,65
2017-09-14T09:29:35.178Z,65
2017-09-14T09:30:35.195Z,75
2017-09-14T09:31:35.224Z,90
2017-09-14T09:32:35.252Z,110
2017-09-14T09:33:35.580Z,125
2017-09-14T09:34:35.288Z,120
2017-09-14T09:35:35.329Z,135
2017-09-14T09:36:35.331Z,165
2017-09-14T09:37:35.354Z,170
2017-09-14T09:38:35.387Z,165
2017-09-14T09:39:36.074Z,160
2017-09-14T09:40:35.732Z,135
2017-09-14T09:41:35.780Z,110
2017-09-14T09:42:35.782Z,100
2017-09-14T09:43:35.491Z,90
2017-09-14T09:44:36.138Z,85
2017-09-14T09:45:35.592Z,90
2017-09-14T09:46:36.182Z,95
2017-09-14T09:47:35.598Z,95
2017-09-14T09:48:35.911Z,100
2017-09-14T09:49:36.004Z,135
2017-09-14T09:50:35.653Z,165
2017-09-14T09:51:35.675Z,185
2017-09-14T09:52:35.692Z,210
2017-09-14T09:53:35.706Z,210
2017-09-14T09:54:35.725Z,230
2017-09-14T09:55:35.756Z,210
2017-09-14T09:56:35.790Z,185
2017-09-14T09:57:35.811Z,185
2017-09-14T09:58:35.842Z,200
2017-09-14T09:59:35.861Z,185
2017-09-14T10:00:35.914Z,155
2017-09-14T10:01:35.890Z,125
2017-09-14T10:02:35.912Z,110
2017-09-14T10:03:35.931Z,110
2017-09-14T10:04:35.955Z,105
2017-09-14T10:05:36.006Z,95
2017-09-14T10:06:36.003Z,85
2017-09-14T10:07:36.031Z,80
2017-09-14T10:08:36.397Z,75
2017-09-14T10:09:36.060Z,80
2017-09-14T10:10:36.089Z,80
2017-09-14T10:11:36.129Z,65
2017-09-14T10:12:36.440Z,55
2017-09-14T10:13:36.151Z,55
2017-09-14T10:14:36.180Z,55
2017-09-14T10:15:36.206Z,60
2017-09-14T10:16:36.220Z,60
2017-09-14T10:17:36.307Z,55
2017-09-14T10:18:36.285Z,55
2017-09-14T10:19:36.284Z,55
2017-09-14T10:20:36.312Z,55
2017-09-14T10:21:36.337Z,55
2017-09-14T10:22:36.363Z,50
2017-09-14T10:23:36.373Z,45
2017-09-14T10:24:36.707Z,45
2017-09-14T10:25:36.418Z,50
2017-09-14T10:26:36.433Z,50
2017-09-14T10:27:36.469Z,50
2017-09-14T10:28:36.684Z,50
2017-09-14T10:29:36.823Z,45
2017-09-14T10:30:36.530Z,45
2017-09-14T10:31:36.542Z,40
2017-09-14T10:32:36.570Z,40
2017-09-14T10:33:36.644Z,35
2017-09-14T10:34:36.606Z,35
2017-09-14T10:35:36.641Z,35
2017-09-14T10:36:37.036Z,40
2017-09-14T10:37:36.668Z,45
2017-09-14T10:38:36.706Z,45
2017-09-14T10:39:37.030Z,45
2017-09-14T10:40:36.742Z,45
2017-09-14T10:41:36.758Z,45
2017-09-14T10:42:36.782Z,35
2017-09-14T10:43:36.808Z,30
2017-09-14T10:44:36.844Z,30
2017-09-14T10:45:36.844Z,30
2017-09-14T10:46:36.860Z,30
2017-09-14T10:47:36.892Z,30
2017-09-14T10:48:36.952Z,30
2017-09-14T10:49:36.925Z,30
2017-09-14T10:50:36.968Z,35
2017-09-14T10:51:36.967Z,40
2017-09-14T10:52:37.290Z,45
2017-09-14T10:53:37.312Z,55
2017-09-14T10:54:37.030Z,60
2017-09-14T10:55:37.042Z,65
2017-09-14T10:56:37.389Z,70
2017-09-14T10:57:37.095Z,65
2017-09-14T10:58:37.108Z,65
2017-09-14T10:59:37.435Z,65
2017-09-14T11:00:37.150Z,65
2017-09-14T11:01:37.161Z,65
2017-09-14T11:02:37.507Z,75
2017-09-14T11:03:37.287Z,90
2017-09-14T11:04:37.543Z,95
2017-09-14T11:05:37.568Z,90
2017-09-14T11:06:37.621Z,85
2017-09-14T11:07:37.295Z,90
2017-09-14T11:08:37.310Z,95
2017-09-14T11:09:37.328Z,90
2017-09-14T11:10:37.393Z,90
2017-09-14T11:11:37.383Z,85
2017-09-14T11:12:37.391Z,80
2017-09-14T11:13:37.399Z,80
2017-09-14T11:14:37.442Z,80
2017-09-14T11:15:37.455Z,85
2017-09-14T11:16:37.471Z,95
2017-09-14T11:17:37.481Z,95
2017-09-14T11:18:37.979Z,95
2017-09-14T11:19:37.518Z,95
2017-09-14T11:20:37.541Z,95
2017-09-14T11:21:37.579Z,90
2017-09-14T11:22:37.584Z,95
2017-09-14T11:23:37.593Z,100
2017-09-14T11:24:37.949Z,105
2017-09-14T11:25:37.634Z,110
2017-09-14T11:26:38.768Z,105
2017-09-14T11:27:41.867Z,105
2017-09-14T11:28:37.689Z,105
2017-09-14T11:29:37.717Z,100
2017-09-14T11:30:37.734Z,100
2017-09-14T11:31:37.754Z,105
2017-09-14T11:32:37.787Z,105
2017-09-14T11:33:37.840Z,100
2017-09-14T11:34:37.810Z,105
2017-09-14T11:35:37.826Z,105
2017-09-14T11:36:37.865Z,110
2017-09-14T11:37:37.869Z,115
2017-09-14T11:38:38.196Z,120
2017-09-14T11:39:37.912Z,130
2017-09-14T11:40:37.922Z,135
2017-09-14T11:41:37.957Z,140
2017-09-14T11:42:38.284Z,135
2017-09-14T11:43:38.293Z,120
2017-09-14T11:44:37.998Z,105
2017-09-14T11:45:38.021Z,100
2017-09-14T11:46:38.045Z,95
2017-09-14T11:47:38.056Z,90
2017-09-14T11:48:38.081Z,90
2017-09-14T11:49:38.194Z,95
2017-09-14T11:50:38.112Z,90
2017-09-14T11:51:38.463Z,85
2017-09-14T11:52:38.470Z,85
2017-09-14T11:53:38.192Z,80
2017-09-14T11:54:38.535Z,80
2017-09-14T11:55:38.214Z,80
2017-09-14T11:56:38.587Z,85
2017-09-14T11:57:38.872Z,80
2017-09-14T11:58:38.574Z,80
2017-09-14T11:59:38.309Z,75
2017-09-14T12:00:38.302Z,70
2017-09-14T12:01:38.329Z,70
2017-09-14T12:02:38.341Z,75
2017-09-14T12:03:38.364Z,75
2017-09-14T12:04:38.378Z,75
2017-09-14T12:05:38.408Z,75
2017-09-14T12:06:38.440Z,75
2017-09-14T12:07:38.486Z,75
2017-09-14T12:08:38.474Z,75
2017-09-14T12:09:38.477Z,80
2017-09-14T12:10:38.797Z,80
2017-09-14T12:11:38.523Z,85
2017-09-14T12:12:38.531Z,95
2017-09-14T12:13:38.881Z,95
2017-09-14T12:14:38.902Z,95
2017-09-14T12:15:38.581Z,95
2017-09-14T12:16:38.611Z,90
2017-09-14T12:17:39.308Z,85
2017-09-14T12:18:38.971Z,85
2017-09-14T12:19:38.655Z,90
2017-09-14T12:20:38.679Z,95
2017-09-14T12:21:39.017Z,95
2017-09-14T12:22:38.714Z,95
2017-09-14T12:23:39.056Z,90
2017-09-14T12:24:38.758Z,85
2017-09-14T12:25:38.818Z,85
2017-09-14T12:26:39.114Z,85
2017-09-14T12:27:39.132Z,80
2017-09-14T12:28:38.821Z,75
2017-09-14T12:29:38.849Z,75
2017-09-14T12:30:38.907Z,75
2017-09-14T12:31:39.199Z,75
2017-09-14T12:32:38.893Z,75
2017-09-14T12:33:38.945Z,80
2017-09-14T12:34:38.939Z,85
2017-09-14T12:35:39.442Z,90
2017-09-14T12:36:39.008Z,100
2017-09-14T12:37:38.995Z,95
2017-09-14T12:38:39.837Z,95
2017-09-14T12:39:39.038Z,90
2017-09-14T12:40:39.083Z,90
2017-09-14T12:41:39.433Z,85
2017-09-14T12:42:39.082Z,90
2017-09-14T12:43:39.101Z,95
2017-09-14T12:44:39.313Z,95
2017-09-14T12:45:39.453Z,105
2017-09-14T12:46:39.150Z,105
2017-09-14T12:47:39.172Z,105
2017-09-14T12:48:39.189Z,100
2017-09-14T12:49:39.219Z,95
2017-09-14T12:50:39.241Z,95
2017-09-14T12:51:39.244Z,95
2017-09-14T12:52:39.574Z,100
2017-09-14T12:53:39.279Z,95
2017-09-14T12:54:39.314Z,95
2017-09-14T12:55:39.670Z,95
2017-09-14T12:56:39.400Z,95
2017-09-14T12:57:39.351Z,95
2017-09-14T12:58:39.373Z,85
2017-09-14T12:59:39.423Z,85
2017-09-14T13:00:39.503Z,90
2017-09-14T13:01:39.446Z,85
2017-09-14T13:02:39.445Z,85
2017-09-14T13:03:39.477Z,85
2017-09-14T13:04:39.500Z,85
2017-09-14T13:05:39.813Z,90
2017-09-14T13:06:39.512Z,90
2017-09-14T13:07:39.524Z,90
2017-09-14T13:08:39.619Z,90
2017-09-14T13:09:39.562Z,90
2017-09-14T13:10:39.591Z,90
2017-09-14T13:11:39.664Z,90
2017-09-14T13:12:39.628Z,90
2017-09-14T13:13:39.643Z,95
2017-09-14T13:14:39.690Z,95
2017-09-14T13:15:39.676Z,95
2017-09-14T13:16:41.132Z,95
2017-09-14T13:17:41.409Z,95
2017-09-14T13:18:40.635Z,95
2017-09-14T13:19:40.106Z,100
2017-09-14T13:20:40.088Z,95
2017-09-14T13:21:39.800Z,100
2017-09-14T13:22:40.154Z,105
2017-09-14T13:23:40.163Z,105
2017-09-14T13:24:39.841Z,110
2017-09-14T13:25:39.861Z,110
2017-09-14T13:26:39.874Z,110
2017-09-14T13:27:39.901Z,120
2017-09-14T13:28:40.230Z,115
2017-09-14T13:29:39.933Z,115
2017-09-14T13:30:39.961Z,115
2017-09-14T13:31:39.980Z,120
2017-09-14T13:32:39.992Z,120
2017-09-14T13:33:40.337Z,125
2017-09-14T13:34:40.346Z,130
2017-09-14T13:35:40.058Z,140
2017-09-14T13:36:40.061Z,140
2017-09-14T13:37:40.083Z,145
2017-09-14T13:38:40.108Z,145
2017-09-14T13:39:40.434Z,150
2017-09-14T13:40:40.453Z,150
2017-09-14T13:41:40.266Z,145
2017-09-14T13:42:40.178Z,140
2017-09-14T13:43:40.210Z,120
2017-09-14T13:44:40.210Z,115
2017-09-14T13:45:40.234Z,115
2017-09-14T13:46:40.566Z,105
2017-09-14T13:47:40.627Z,95
2017-09-14T13:48:40.311Z,90
2017-09-14T13:49:40.319Z,90
2017-09-14T13:50:40.328Z,85
2017-09-14T13:51:40.357Z,85
2017-09-14T13:52:40.357Z,80
2017-09-14T13:53:40.384Z,80
2017-09-14T13:54:40.434Z,85
2017-09-14T13:55:40.425Z,85
2017-09-14T13:56:40.457Z,85
2017-09-14T13:57:40.458Z,80
2017-09-14T13:58:40.500Z,70
2017-09-14T13:59:40.491Z,65
2017-09-14T14:00:40.510Z,60
2017-09-14T14:01:40.533Z,60
2017-09-14T14:02:41.173Z,65
2017-09-14T14:03:40.633Z,65
2017-09-14T14:04:40.894Z,65
2017-09-14T14:05:40.911Z,65
2017-09-14T14:06:40.623Z,65
2017-09-14T14:07:40.635Z,60
2017-09-14T14:08:40.659Z,60
2017-09-14T14:09:40.680Z,55
2017-09-14T14:10:40.687Z,55
2017-09-14T14:11:41.014Z,55
2017-09-14T14:12:40.730Z,55
2017-09-14T14:13:40.751Z,55
2017-09-14T14:14:40.759Z,55
2017-09-14T14:15:40.781Z,55